Time;durP1;ratioP1;P1;durP2;ratioP2;P2;SDS_P1;SDS_P2;PMS_P1;PMS_P2;Temp;Humidity;BMP_temperature;BMP_pressure;BME280_temperature;BME280_humidity;BME280_pressure;Samples;Min_cycle;Max_cycle;Signal;HPM_P1;HPM_P2
2022/12/31 00:01:31;;;;;;;;;;;;;;;;;;5014485;28;20016;-89
2022/12/31 00:03:57;;;;;;;;;;;;;;;;;;5017949;28;20012;-88
2022/12/31 00:06:23;;;;;;;;;;;;;;;;;;5018648;28;19975;-88
2022/12/31 00:08:48;;;;;;;;;;;;;;;;;;5018479;28;19943;-88
2022/12/31 00:11:14;;;;;;;;;;;;;;;;;;5018376;28;19980;-88
2022/12/31 00:13:40;;;;;;;;;;;;;;;;;;5018369;28;19921;-89
2022/12/31 00:16:06;;;;;;;;;;;;;;;;;;5018237;28;19921;-88
2022/12/31 00:18:32;;;;;;;;;;;;;;;;;;5001874;28;19970;-90
2022/12/31 00:20:58;;;;;;;;;;;;;;;;;;5018071;28;19952;-89
2022/12/31 00:23:24;;;;;;;;;;;;;;;;;;5002077;28;19921;-89
2022/12/31 00:25:50;;;;;;;;;;;;;;;;;;5018169;28;19922;-89
2022/12/31 00:28:16;;;;;;;;;;;;;;;;;;5001716;28;19921;-89
2022/12/31 00:30:42;;;;;;;;;;;;;;;;;;5001690;28;19936;-89
2022/12/31 00:33:08;;;;;;;;;;;;;;;;;;5018048;28;19921;-89
2022/12/31 00:35:35;;;;;;;;;;;;;;;;;;5001816;28;19942;-89
2022/12/31 00:38:01;;;;;;;;;;;;;;;;;;5017971;28;19933;-88
2022/12/31 00:40:27;;;;;;;;;;;;;;;;;;5001548;28;19927;-88
2022/12/31 00:42:52;;;;;;;;;;;;;;;;;;5018005;28;19943;-89
2022/12/31 00:45:18;;;;;;;;;;;;;;;;;;5001361;28;19921;-89
2022/12/31 00:47:44;;;;;;;;;;;;;;;;;;5017712;28;19925;-89
2022/12/31 00:50:10;;;;;;;;;;;;;;;;;;5001691;28;20217;-88
2022/12/31 00:52:36;;;;;;;;;;;;;;;;;;5001589;28;20360;-89
2022/12/31 00:55:02;;;;;;;;;;;;;;;;;;5001476;28;19972;-89
2022/12/31 00:57:28;;;;;;;;;;;;;;;;;;5017940;28;20356;-89
2022/12/31 00:59:54;;;;;;;;;;;;;;;;;;5017641;28;19921;-89
2022/12/31 01:02:20;;;;;;;;;;;;;;;;;;5000594;28;19921;-89
2022/12/31 01:04:46;;;;;;;;;;;;;;;;;;5017408;28;19921;-89
2022/12/31 01:07:12;;;;;;;;;;;;;;;;;;5001125;28;19921;-89
2022/12/31 01:09:38;;;;;;;;;;;;;;;;;;5017412;28;19979;-89
2022/12/31 01:12:04;;;;;;;;;;;;;;;;;;5017314;28;19932;-89
2022/12/31 01:14:32;;;;;;;;;;;;;;;;;;5016781;28;19921;-89
2022/12/31 01:16:58;;;;;;;;;;;;;;;;;;5000704;28;19921;-89
2022/12/31 01:19:24;;;;;;;;;;;;;;;;;;5000818;28;19928;-89
2022/12/31 01:21:50;;;;;;;;;;;;;;;;;;5001125;28;19929;-89
2022/12/31 01:24:16;;;;;;;;;;;;;;;;;;5000240;28;19921;-89
2022/12/31 01:26:42;;;;;;;;;;;;;;;;;;5000636;28;19921;-89
2022/12/31 01:29:08;;;;;;;;;;;;;;;;;;5017058;28;19921;-89
2022/12/31 01:31:34;;;;;;;;;;;;;;;;;;5000424;28;19925;-89
2022/12/31 01:33:59;;;;;;;;;;;;;;;;;;5017236;28;20016;-89
2022/12/31 01:36:25;;;;;;;;;;;;;;;;;;5000892;28;20140;-89
2022/12/31 01:38:51;;;;;;;;;;;;;;;;;;5000662;28;20015;-89
2022/12/31 01:41:17;;;;;;;;;;;;;;;;;;5000488;28;19944;-90
2022/12/31 01:43:43;;;;;;;;;;;;;;;;;;5016704;28;19980;-89
2022/12/31 01:46:09;;;;;;;;;;;;;;;;;;4999649;28;19921;-89
2022/12/31 01:48:35;;;;;;;;;;;;;;;;;;5000342;28;19921;-89
2022/12/31 01:51:01;;;;;;;;;;;;;;;;;;5016678;28;19929;-89
2022/12/31 01:53:27;;;;;;;;;;;;;;;;;;5016645;28;20375;-89
2022/12/31 01:55:53;;;;;;;;;;;;;;;;;;5016455;28;19971;-89
2022/12/31 01:58:18;;;;;;;;;;;;;;;;;;5000104;28;19928;-89
2022/12/31 02:00:44;;;;;;;;;;;;;;;;;;5000265;28;19958;-89
2022/12/31 02:03:10;;;;;;;;;;;;;;;;;;5016655;28;19947;-89
2022/12/31 02:05:36;;;;;;;;;;;;;;;;;;5016195;28;19947;-90
2022/12/31 02:08:02;;;;;;;;;;;;;;;;;;4999857;28;19999;-89
2022/12/31 02:10:28;;;;;;;;;;;;;;;;;;4999923;28;20367;-89
2022/12/31 02:12:54;;;;;;;;;;;;;;;;;;4999829;28;19921;-89
2022/12/31 02:15:20;;;;;;;;;;;;;;;;;;4999665;28;19927;-89
2022/12/31 02:17:46;;;;;;;;;;;;;;;;;;5016204;28;20012;-89
2022/12/31 02:20:12;;;;;;;;;;;;;;;;;;5015952;28;19932;-89
2022/12/31 02:22:37;;;;;;;;;;;;;;;;;;5016048;28;19964;-89
2022/12/31 02:25:03;;;;;;;;;;;;;;;;;;4998658;28;19976;-88
2022/12/31 02:27:29;;;;;;;;;;;;;;;;;;5016140;28;19968;-89
2022/12/31 02:29:55;;;;;;;;;;;;;;;;;;5015978;28;20482;-88
2022/12/31 02:32:21;;;;;;;;;;;;;;;;;;5015811;28;19929;-88
2022/12/31 02:34:47;;;;;;;;;;;;;;;;;;5015969;28;19928;-88
2022/12/31 02:37:13;;;;;;;;;;;;;;;;;;5015969;28;20360;-88
2022/12/31 02:39:39;;;;;;;;;;;;;;;;;;4999357;28;19921;-88
2022/12/31 02:42:05;;;;;;;;;;;;;;;;;;5015992;28;19944;-87
2022/12/31 02:44:30;;;;;;;;;;;;;;;;;;5016024;28;19921;-88
2022/12/31 02:46:56;;;;;;;;;;;;;;;;;;5015702;28;19921;-88
2022/12/31 02:49:22;;;;;;;;;;;;;;;;;;5015512;28;20031;-88
2022/12/31 02:51:48;;;;;;;;;;;;;;;;;;5015415;28;19925;-88
2022/12/31 02:54:14;;;;;;;;;;;;;;;;;;4999322;28;20296;-88
2022/12/31 02:56:40;;;;;;;;;;;;;;;;;;4999296;28;19928;-88
2022/12/31 03:04:36;;;;;;;;;;;;;;;;;;5015257;28;19922;-88
2022/12/31 03:07:02;;;;;;;;;;;;;;;;;;4998970;28;19943;-88
2022/12/31 03:09:27;;;;;;;;;;;;;;;;;;5015400;28;19929;-88
2022/12/31 03:14:38;;;;;;;;;;;;;;;;;;5015000;28;20384;-88
2022/12/31 03:17:06;;;;;;;;;;;;;;;;;;5014487;28;21266;-88
2022/12/31 03:22:29;;;;;;;;;;;;;;;;;;5015282;28;20236;-88
2022/12/31 03:27:39;;;;;;;;;;;;;;;;;;5014919;28;19921;-87
2022/12/31 03:30:05;;;;;;;;;;;;;;;;;;5014912;28;20011;-87
2022/12/31 03:32:31;;;;;;;;;;;;;;;;;;5014707;28;19929;-87
2022/12/31 03:34:57;;;;;;;;;;;;;;;;;;5014900;28;19943;-87
2022/12/31 03:37:23;;;;;;;;;;;;;;;;;;4998516;28;20369;-87
2022/12/31 03:39:49;;;;;;;;;;;;;;;;;;5014870;28;19968;-87
2022/12/31 03:42:14;;;;;;;;;;;;;;;;;;4998647;28;19979;-87
2022/12/31 03:44:40;;;;;;;;;;;;;;;;;;5014676;28;19921;-87
2022/12/31 03:47:06;;;;;;;;;;;;;;;;;;5014687;28;19969;-88
2022/12/31 03:49:32;;;;;;;;;;;;;;;;;;5032591;28;19921;-87
2022/12/31 03:51:58;;;;;;;;;;;;;;;;;;5032251;28;20287;-88
2022/12/31 03:54:24;;;;;;;;;;;;;;;;;;5014681;28;19929;-88
2022/12/31 03:56:50;;;;;;;;;;;;;;;;;;5014531;28;19944;-87
2022/12/31 03:59:16;;;;;;;;;;;;;;;;;;5032105;28;19921;-87
2022/12/31 04:01:42;;;;;;;;;;;;;;;;;;4998100;28;19968;-88
2022/12/31 04:04:08;;;;;;;;;;;;;;;;;;5014901;28;19986;-88
2022/12/31 04:06:33;;;;;;;;;;;;;;;;;;5032241;28;20384;-88
2022/12/31 04:08:59;;;;;;;;;;;;;;;;;;5032141;28;19928;-88
2022/12/31 04:11:25;;;;;;;;;;;;;;;;;;5014407;28;19979;-88
2022/12/31 04:13:51;;;;;;;;;;;;;;;;;;5014283;28;20016;-87
2022/12/31 04:16:17;;;;;;;;;;;;;;;;;;5014272;28;20360;-87
2022/12/31 04:18:43;;;;;;;;;;;;;;;;;;4997891;28;19921;-88
2022/12/31 04:21:09;;;;;;;;;;;;;;;;;;4998050;28;19926;-88
2022/12/31 04:23:35;;;;;;;;;;;;;;;;;;4998085;28;19921;-88
2022/12/31 04:26:01;;;;;;;;;;;;;;;;;;5014449;28;19940;-88
2022/12/31 04:28:27;;;;;;;;;;;;;;;;;;5014517;28;20373;-88
2022/12/31 04:30:52;;;;;;;;;;;;;;;;;;5013988;28;20081;-87
2022/12/31 04:33:18;;;;;;;;;;;;;;;;;;5014540;28;19921;-88
2022/12/31 04:35:44;;;;;;;;;;;;;;;;;;5031857;28;20391;-87
2022/12/31 04:38:10;;;;;;;;;;;;;;;;;;5014278;28;19932;-88
2022/12/31 04:41:15;;;;;;;;;;;;;;;;;;5014702;28;19928;-89
2022/12/31 04:43:22;;;;;;;;;;;;;;;;;;5014000;28;20281;-89
2022/12/31 04:45:48;;;;;;;;;;;;;;;;;;5013988;28;20016;-89
2022/12/31 04:48:14;;;;;;;;;;;;;;;;;;5014657;28;20016;-88
2022/12/31 04:50:40;;;;;;;;;;;;;;;;;;5001686;28;19921;-88
2022/12/31 04:53:05;;;;;;;;;;;;;;;;;;5001373;28;19927;-88
2022/12/31 04:55:31;;;;;;;;;;;;;;;;;;5001169;28;19925;-88
2022/12/31 04:57:57;;;;;;;;;;;;;;;;;;5017775;28;20008;-88
2022/12/31 05:00:23;;;;;;;;;;;;;;;;;;5017487;28;20284;-88
2022/12/31 05:02:49;;;;;;;;;;;;;;;;;;5017523;28;19929;-88
2022/12/31 05:05:15;;;;;;;;;;;;;;;;;;5001060;28;19921;-88
2022/12/31 05:07:41;;;;;;;;;;;;;;;;;;5001531;28;19925;-88
2022/12/31 05:10:07;;;;;;;;;;;;;;;;;;5001335;28;20394;-88
2022/12/31 05:12:33;;;;;;;;;;;;;;;;;;5001128;28;19982;-88
2022/12/31 05:14:58;;;;;;;;;;;;;;;;;;5017212;28;19921;-87
2022/12/31 05:17:24;;;;;;;;;;;;;;;;;;5017407;28;19975;-87
2022/12/31 05:19:50;;;;;;;;;;;;;;;;;;4997387;28;20332;-88
2022/12/31 05:22:28;;;;;;;;;;;;;;;;;;5014079;28;19948;-87
2022/12/31 05:24:54;;;;;;;;;;;;;;;;;;5013684;28;19921;-88
2022/12/31 05:27:20;;;;;;;;;;;;;;;;;;5013727;28;20306;-88
2022/12/31 05:29:46;;;;;;;;;;;;;;;;;;4997766;28;20343;-88
2022/12/31 05:32:12;;;;;;;;;;;;;;;;;;5014131;28;19930;-87
2022/12/31 05:34:38;;;;;;;;;;;;;;;;;;5013611;28;19929;-88
2022/12/31 05:37:04;;;;;;;;;;;;;;;;;;4997133;28;19944;-88
2022/12/31 05:39:30;;;;;;;;;;;;;;;;;;5013507;28;19965;-87
2022/12/31 05:41:56;;;;;;;;;;;;;;;;;;5013707;28;20008;-88
2022/12/31 05:44:22;;;;;;;;;;;;;;;;;;4997271;28;20349;-88
2022/12/31 05:46:47;;;;;;;;;;;;;;;;;;5013387;28;19922;-88
2022/12/31 05:49:13;;;;;;;;;;;;;;;;;;4997225;28;19983;-88
2022/12/31 05:51:39;;;;;;;;;;;;;;;;;;5013356;28;19972;-88
2022/12/31 05:54:05;;;;;;;;;;;;;;;;;;5013206;28;20415;-88
2022/12/31 05:56:31;;;;;;;;;;;;;;;;;;5013302;28;20023;-88
2022/12/31 05:59:00;;;;;;;;;;;;;;;;;;5013455;28;20265;-88
2022/12/31 06:01:26;;;;;;;;;;;;;;;;;;5012115;28;19921;-88
2022/12/31 06:03:52;;;;;;;;;;;;;;;;;;5013287;28;19921;-88
2022/12/31 06:06:18;;;;;;;;;;;;;;;;;;5012966;28;19991;-88
2022/12/31 06:08:44;;;;;;;;;;;;;;;;;;5014449;28;19926;-87
2022/12/31 06:11:09;;;;;;;;;;;;;;;;;;5012987;28;20285;-87
2022/12/31 06:13:35;;;;;;;;;;;;;;;;;;5012931;28;19922;-86
2022/12/31 06:16:01;;;;;;;;;;;;;;;;;;5012844;28;20273;-86
2022/12/31 06:18:27;;;;;;;;;;;;;;;;;;4996543;28;19937;-87
2022/12/31 06:20:53;;;;;;;;;;;;;;;;;;5012634;28;19926;-86
2022/12/31 06:23:19;;;;;;;;;;;;;;;;;;4996382;28;19933;-87
2022/12/31 06:25:45;;;;;;;;;;;;;;;;;;4996393;28;20292;-86
2022/12/31 06:28:11;;;;;;;;;;;;;;;;;;5012719;28;19926;-86
2022/12/31 06:30:37;;;;;;;;;;;;;;;;;;5012585;28;20357;-87
2022/12/31 06:33:02;;;;;;;;;;;;;;;;;;5012581;28;19921;-86
2022/12/31 06:35:28;;;;;;;;;;;;;;;;;;5012485;28;19921;-86
2022/12/31 06:37:54;;;;;;;;;;;;;;;;;;4996049;28;20284;-86
2022/12/31 06:40:20;;;;;;;;;;;;;;;;;;4996148;28;19921;-86
2022/12/31 06:42:46;;;;;;;;;;;;;;;;;;5012693;28;19930;-86
2022/12/31 06:45:14;;;;;;;;;;;;;;;;;;4996240;28;19981;-86
2022/12/31 06:47:39;;;;;;;;;;;;;;;;;;5012397;28;19921;-86
2022/12/31 06:50:06;;;;;;;;;;;;;;;;;;5012217;28;20324;-86
2022/12/31 06:52:31;;;;;;;;;;;;;;;;;;5012114;28;19940;-86
2022/12/31 06:54:57;;;;;;;;;;;;;;;;;;5012175;28;19921;-88
2022/12/31 06:57:23;;;;;;;;;;;;;;;;;;4995815;28;20285;-86
2022/12/31 06:59:49;;;;;;;;;;;;;;;;;;5013548;28;19928;-86
2022/12/31 07:02:15;;;;;;;;;;;;;;;;;;4995894;28;19922;-86
2022/12/31 07:04:41;;;;;;;;;;;;;;;;;;5012074;28;20033;-85
2022/12/31 07:07:07;;;;;;;;;;;;;;;;;;5011899;28;19928;-86
2022/12/31 07:09:33;;;;;;;;;;;;;;;;;;5012363;28;20292;-86
2022/12/31 07:11:59;;;;;;;;;;;;;;;;;;5011561;28;20056;-86
2022/12/31 07:14:25;;;;;;;;;;;;;;;;;;5011869;28;19975;-85
2022/12/31 07:16:51;;;;;;;;;;;;;;;;;;5011796;28;19952;-86
2022/12/31 07:19:17;;;;;;;;;;;;;;;;;;5011894;28;20029;-86
2022/12/31 07:21:42;;;;;;;;;;;;;;;;;;5015210;28;19991;-85
2022/12/31 07:24:08;;;;;;;;;;;;;;;;;;5014988;28;20300;-85
2022/12/31 07:26:34;;;;;;;;;;;;;;;;;;5032787;28;19921;-86
2022/12/31 07:29:00;;;;;;;;;;;;;;;;;;5015276;28;19921;-85
2022/12/31 07:31:26;;;;;;;;;;;;;;;;;;5014733;28;19925;-86
2022/12/31 07:33:52;;;;;;;;;;;;;;;;;;4997997;28;19965;-87
2022/12/31 07:36:18;;;;;;;;;;;;;;;;;;4998377;28;19921;-86
2022/12/31 07:38:44;;;;;;;;;;;;;;;;;;5014723;28;19956;-87
2022/12/31 07:41:10;;;;;;;;;;;;;;;;;;5014717;28;19944;-88
2022/12/31 07:43:36;;;;;;;;;;;;;;;;;;5014655;28;19921;-89
2022/12/31 07:46:01;;;;;;;;;;;;;;;;;;4998317;28;19932;-89
2022/12/31 07:48:27;;;;;;;;;;;;;;;;;;5014729;28;20060;-88
2022/12/31 07:50:54;;;;;;;;;;;;;;;;;;5014747;28;19921;-86
2022/12/31 07:53:19;;;;;;;;;;;;;;;;;;5015159;28;19991;-86
2022/12/31 07:55:45;;;;;;;;;;;;;;;;;;5014854;28;20434;-87
2022/12/31 07:58:11;;;;;;;;;;;;;;;;;;4998540;28;20368;-85
2022/12/31 08:00:37;;;;;;;;;;;;;;;;;;5014478;28;20305;-86
2022/12/31 08:03:03;;;;;;;;;;;;;;;;;;5014489;28;19921;-87
2022/12/31 08:05:29;;;;;;;;;;;;;;;;;;5014276;28;19991;-87
2022/12/31 08:07:55;;;;;;;;;;;;;;;;;;5014688;28;19971;-87
2022/12/31 08:10:21;;;;;;;;;;;;;;;;;;5014589;28;20382;-87
2022/12/31 08:12:47;;;;;;;;;;;;;;;;;;5014279;28;19928;-89
2022/12/31 08:15:13;;;;;;;;;;;;;;;;;;4997820;28;20214;-89
2022/12/31 08:17:39;;;;;;;;;;;;;;;;;;4998112;28;20307;-89
2022/12/31 08:20:05;;;;;;;;;;;;;;;;;;4998146;28;19925;-88
2022/12/31 08:22:31;;;;;;;;;;;;;;;;;;4998086;28;20055;-88
2022/12/31 08:24:56;;;;;;;;;;;;;;;;;;5001366;28;19921;-88
2022/12/31 08:27:22;;;;;;;;;;;;;;;;;;5002175;28;19921;-88
2022/12/31 08:29:48;;;;;;;;;;;;;;;;;;5002256;28;20280;-88
2022/12/31 08:32:14;;;;;;;;;;;;;;;;;;5001616;28;19925;-88
2022/12/31 08:34:40;;;;;;;;;;;;;;;;;;5001636;28;19922;-88
2022/12/31 08:37:06;;;;;;;;;;;;;;;;;;5001197;28;20008;-88
2022/12/31 08:39:32;;;;;;;;;;;;;;;;;;5001637;28;19951;-88
2022/12/31 08:41:58;;;;;;;;;;;;;;;;;;5018405;28;19945;-87
2022/12/31 08:44:24;;;;;;;;;;;;;;;;;;5018103;28;19921;-88
2022/12/31 08:46:50;;;;;;;;;;;;;;;;;;5001307;28;20012;-89
2022/12/31 08:49:16;;;;;;;;;;;;;;;;;;5001698;28;19925;-89
2022/12/31 08:51:42;;;;;;;;;;;;;;;;;;5017945;28;19970;-89
2022/12/31 08:54:08;;;;;;;;;;;;;;;;;;5018106;28;19951;-88
2022/12/31 08:56:33;;;;;;;;;;;;;;;;;;5001599;28;20089;-89
2022/12/31 08:58:59;;;;;;;;;;;;;;;;;;5017664;28;19921;-87
2022/12/31 09:01:25;;;;;;;;;;;;;;;;;;5017588;28;19921;-87
2022/12/31 09:03:51;;;;;;;;;;;;;;;;;;5017968;28;20384;-87
2022/12/31 09:06:17;;;;;;;;;;;;;;;;;;5016808;28;19921;-89
2022/12/31 09:08:43;;;;;;;;;;;;;;;;;;5014726;28;19932;-88
2022/12/31 09:11:09;;;;;;;;;;;;;;;;;;4997306;28;20352;-88
2022/12/31 09:13:35;;;;;;;;;;;;;;;;;;5012867;28;19922;-88
2022/12/31 09:16:01;;;;;;;;;;;;;;;;;;5015231;28;19932;-88
2022/12/31 09:18:27;;;;;;;;;;;;;;;;;;5017144;28;20024;-88
2022/12/31 09:20:53;;;;;;;;;;;;;;;;;;5017182;28;20007;-88
2022/12/31 09:23:18;;;;;;;;;;;;;;;;;;5016910;28;20012;-88
2022/12/31 09:25:44;;;;;;;;;;;;;;;;;;5016826;28;19921;-88
2022/12/31 09:28:11;;;;;;;;;;;;;;;;;;5000833;28;19928;-88
2022/12/31 09:30:37;;;;;;;;;;;;;;;;;;5000399;28;19921;-88
2022/12/31 09:33:02;;;;;;;;;;;;;;;;;;5016738;28;20394;-88
2022/12/31 09:35:28;;;;;;;;;;;;;;;;;;5000433;28;20016;-89
2022/12/31 09:37:54;;;;;;;;;;;;;;;;;;5016880;28;20267;-89
2022/12/31 09:40:20;;;;;;;;;;;;;;;;;;5000353;28;20383;-89
2022/12/31 09:42:46;;;;;;;;;;;;;;;;;;5017113;28;19979;-90
2022/12/31 09:45:12;;;;;;;;;;;;;;;;;;5016688;28;20375;-88
2022/12/31 09:47:38;;;;;;;;;;;;;;;;;;5000783;28;19928;-90
2022/12/31 09:50:04;;;;;;;;;;;;;;;;;;5000189;28;19927;-88
2022/12/31 09:52:30;;;;;;;;;;;;;;;;;;5016445;28;19976;-89
2022/12/31 09:54:56;;;;;;;;;;;;;;;;;;5000100;28;19987;-88
2022/12/31 09:57:26;;;;;;;;;;;;;;;;;;5000133;28;19972;-94
2022/12/31 09:59:52;;;;;;;;;;;;;;;;;;5016897;28;19921;-91
2022/12/31 10:02:18;;;;;;;;;;;;;;;;;;4999876;28;20015;-91
2022/12/31 10:04:44;;;;;;;;;;;;;;;;;;5000266;28;19967;-91
2022/12/31 10:07:10;;;;;;;;;;;;;;;;;;5017894;28;20016;-92
2022/12/31 10:09:39;;;;;;;;;;;;;;;;;;5000812;28;19921;-93
2022/12/31 10:12:05;;;;;;;;;;;;;;;;;;5000922;28;20376;-94
2022/12/31 10:14:48;;;;;;;;;;;;;;;;;;5000976;28;20372;-95
2022/12/31 10:17:18;;;;;;;;;;;;;;;;;;5018845;28;20011;-95
2022/12/31 10:19:47;;;;;;;;;;;;;;;;;;5001335;28;19925;-93
2022/12/31 10:22:13;;;;;;;;;;;;;;;;;;5001448;28;20574;-93
2022/12/31 10:27:15;;;;;;;;;;;;;;;;;;6047126;23;19920;-93
2022/12/31 10:29:41;;;;;;;;;;;;;;;;;;5013555;28;19944;-94
2022/12/31 10:32:08;;;;;;;;;;;;;;;;;;5015256;28;20360;-92
2022/12/31 10:34:34;;;;;;;;;;;;;;;;;;5015415;28;20004;-96
2022/12/31 10:37:08;;;;;;;;;;;;;;;;;;5020422;28;19921;-95
2022/12/31 10:39:37;;;;;;;;;;;;;;;;;;5017572;28;19936;-96
2022/12/31 10:42:04;;;;;;;;;;;;;;;;;;5018820;28;19925;-94
2022/12/31 10:44:43;;;;;;;;;;;;;;;;;;;;;
2022/12/31 10:47:17;;;;;;;;;;;;;;;;;;5020904;28;19927;-96
2022/12/31 11:35:18;;;;;;;;;;;;;;;;;;5038317;28;19976;-96
2022/12/31 11:37:52;;;;;;;;;;;;;;;;;;5020123;28;19940;-95
2022/12/31 11:40:30;;;;;;;;;;;;;;;;;;5016315;28;19921;-94
2022/12/31 11:43:03;;;;;;;;;;;;;;;;;;5017035;28;19971;-92
2022/12/31 11:45:30;;;;;;;;;;;;;;;;;;5017381;28;19943;-93
2022/12/31 11:47:59;;;;;;;;;;;;;;;;;;5424676;23;19948;-95
2022/12/31 11:50:25;;;;;;;;;;;;;;;;;;5038146;28;19921;-95
2022/12/31 11:52:51;;;;;;;;;;;;;;;;;;5035273;28;19971;-94
2022/12/31 11:55:18;;;;;;;;;;;;;;;;;;5051438;28;19979;-95
2022/12/31 11:58:05;;;;;;;;;;;;;;;;;;5052346;28;19946;-94
2022/12/31 12:00:31;;;;;;;;;;;;;;;;;;5019076;28;19998;-94
2022/12/31 12:02:56;;;;;;;;;;;;;;;;;;5034742;28;20367;-93
2022/12/31 12:05:22;;;;;;;;;;;;;;;;;;5034968;28;19927;-93
2022/12/31 12:07:49;;;;;;;;;;;;;;;;;;5035578;28;19927;-91
2022/12/31 12:10:15;;;;;;;;;;;;;;;;;;5034200;28;19920;-92
2022/12/31 12:12:41;;;;;;;;;;;;;;;;;;5018104;28;19929;-93
2022/12/31 12:15:07;;;;;;;;;;;;;;;;;;5034398;28;19921;-92
2022/12/31 12:17:33;;;;;;;;;;;;;;;;;;5034735;28;19921;-92
2022/12/31 12:19:59;;;;;;;;;;;;;;;;;;5034846;28;19975;-94
2022/12/31 12:22:25;;;;;;;;;;;;;;;;;;5034410;28;19968;-93
2022/12/31 12:24:51;;;;;;;;;;;;;;;;;;5034309;28;19944;-92
2022/12/31 12:27:16;;;;;;;;;;;;;;;;;;5034545;28;19928;-93
2022/12/31 12:29:42;;;;;;;;;;;;;;;;;;5050203;28;20288;-92
2022/12/31 12:32:08;;;;;;;;;;;;;;;;;;5034343;28;20019;-93
2022/12/31 12:34:34;;;;;;;;;;;;;;;;;;5051393;28;19924;-92
2022/12/31 12:37:00;;;;;;;;;;;;;;;;;;5034880;28;20376;-92
2022/12/31 12:39:26;;;;;;;;;;;;;;;;;;5018001;28;19920;-92
2022/12/31 12:41:52;;;;;;;;;;;;;;;;;;5007651;28;19928;-93
2022/12/31 12:44:18;;;;;;;;;;;;;;;;;;5014661;28;19933;-95
2022/12/31 12:46:45;;;;;;;;;;;;;;;;;;5032093;28;20020;-94
2022/12/31 12:49:14;;;;;;;;;;;;;;;;;;5014773;28;20399;-94
2022/12/31 12:51:40;;;;;;;;;;;;;;;;;;4998466;28;19979;-94
2022/12/31 12:54:07;;;;;;;;;;;;;;;;;;5017919;28;19922;-96
2022/12/31 12:56:34;;;;;;;;;;;;;;;;;;5130367;23;20000;-94
2022/12/31 12:59:29;;;;;;;;;;;;;;;;;;5031016;28;19921;-93
2022/12/31 13:01:55;;;;;;;;;;;;;;;;;;5031755;28;20272;-94
2022/12/31 13:04:21;;;;;;;;;;;;;;;;;;5031315;28;20430;-93
2022/12/31 13:06:47;;;;;;;;;;;;;;;;;;5014949;28;20295;-94
2022/12/31 13:09:13;;;;;;;;;;;;;;;;;;4996046;28;19922;-94
2022/12/31 13:11:39;;;;;;;;;;;;;;;;;;4998985;28;19933;-95
2022/12/31 13:14:07;;;;;;;;;;;;;;;;;;5015896;28;19943;-95
2022/12/31 13:16:39;;;;;;;;;;;;;;;;;;5015447;28;20037;-96
2022/12/31 13:19:10;;;;;;;;;;;;;;;;;;5015453;28;19975;-96
2022/12/31 13:21:36;;;;;;;;;;;;;;;;;;4999376;28;19922;-95
2022/12/31 13:24:02;;;;;;;;;;;;;;;;;;4998436;28;19997;-91
2022/12/31 13:26:28;;;;;;;;;;;;;;;;;;4997084;28;19921;-89
2022/12/31 13:28:54;;;;;;;;;;;;;;;;;;4996836;28;19922;-89
2022/12/31 13:31:21;;;;;;;;;;;;;;;;;;5013588;28;20020;-87
2022/12/31 13:33:48;;;;;;;;;;;;;;;;;;4997454;28;20019;-87
2022/12/31 13:36:14;;;;;;;;;;;;;;;;;;4997312;28;20292;-88
2022/12/31 13:38:40;;;;;;;;;;;;;;;;;;4996818;28;19922;-88
2022/12/31 13:41:06;;;;;;;;;;;;;;;;;;4997899;28;20038;-91
2022/12/31 13:43:32;;;;;;;;;;;;;;;;;;4996914;28;20035;-88
2022/12/31 13:45:58;;;;;;;;;;;;;;;;;;4997213;28;19922;-89
2022/12/31 13:48:23;;;;;;;;;;;;;;;;;;4996855;28;20383;-89
2022/12/31 13:50:50;;;;;;;;;;;;;;;;;;5013074;28;19922;-90
2022/12/31 13:53:16;;;;;;;;;;;;;;;;;;5029427;28;19926;-89
2022/12/31 13:55:42;;;;;;;;;;;;;;;;;;4996726;28;20344;-88
2022/12/31 13:58:08;;;;;;;;;;;;;;;;;;5014221;28;20328;-90
2022/12/31 14:00:34;;;;;;;;;;;;;;;;;;4997236;28;19929;-89
2022/12/31 14:03:00;;;;;;;;;;;;;;;;;;4997912;28;20255;-91
2022/12/31 14:05:26;;;;;;;;;;;;;;;;;;4994168;28;19969;-90
2022/12/31 14:07:52;;;;;;;;;;;;;;;;;;4977267;28;19922;-92
2022/12/31 14:10:18;;;;;;;;;;;;;;;;;;4977550;28;19976;-91
2022/12/31 14:12:44;;;;;;;;;;;;;;;;;;4988410;28;19936;-92
2022/12/31 14:15:10;;;;;;;;;;;;;;;;;;4977650;28;19922;-94
2022/12/31 14:17:37;;;;;;;;;;;;;;;;;;4977466;28;20322;-92
2022/12/31 14:20:03;;;;;;;;;;;;;;;;;;4979318;28;19929;-91
2022/12/31 14:22:29;;;;;;;;;;;;;;;;;;4995287;28;19927;-91
2022/12/31 14:24:55;;;;;;;;;;;;;;;;;;4996746;28;20015;-90
2022/12/31 14:27:24;;;;;;;;;;;;;;;;;;4996769;28;20004;-90
2022/12/31 14:29:50;;;;;;;;;;;;;;;;;;4997677;28;19921;-91
2022/12/31 14:32:16;;;;;;;;;;;;;;;;;;4996450;28;19926;-89
2022/12/31 14:34:42;;;;;;;;;;;;;;;;;;5012698;28;19969;-90
2022/12/31 14:37:07;;;;;;;;;;;;;;;;;;5013007;28;19999;-90
2022/12/31 14:39:33;;;;;;;;;;;;;;;;;;5012428;28;19922;-90
2022/12/31 14:41:59;;;;;;;;;;;;;;;;;;4996893;28;19929;-92
2022/12/31 14:44:25;;;;;;;;;;;;;;;;;;4998915;28;20000;-91
2022/12/31 14:46:54;;;;;;;;;;;;;;;;;;4997689;28;19944;-91
2022/12/31 14:49:21;;;;;;;;;;;;;;;;;;5013197;28;19921;-91
2022/12/31 14:51:46;;;;;;;;;;;;;;;;;;4997409;28;19987;-91
2022/12/31 14:54:12;;;;;;;;;;;;;;;;;;4997908;28;19940;-91
2022/12/31 14:56:38;;;;;;;;;;;;;;;;;;5008232;28;19979;-91
2022/12/31 14:59:04;;;;;;;;;;;;;;;;;;5016211;28;19925;-89
2022/12/31 15:01:30;;;;;;;;;;;;;;;;;;5031740;28;19921;-89
2022/12/31 15:03:56;;;;;;;;;;;;;;;;;;5017948;28;20231;-90
2022/12/31 15:06:22;;;;;;;;;;;;;;;;;;5016637;28;19927;-90
2022/12/31 15:08:48;;;;;;;;;;;;;;;;;;5015069;28;20011;-89
2022/12/31 15:11:14;;;;;;;;;;;;;;;;;;5014888;28;19929;-88
2022/12/31 15:13:40;;;;;;;;;;;;;;;;;;5032500;28;19978;-89
2022/12/31 15:16:06;;;;;;;;;;;;;;;;;;5031307;28;20012;-89
2022/12/31 15:18:32;;;;;;;;;;;;;;;;;;5014981;28;19921;-88
2022/12/31 15:20:58;;;;;;;;;;;;;;;;;;5014824;28;19983;-89
2022/12/31 15:23:24;;;;;;;;;;;;;;;;;;5014794;28;19927;-89
2022/12/31 15:25:50;;;;;;;;;;;;;;;;;;5014535;28;19928;-90
2022/12/31 15:28:16;;;;;;;;;;;;;;;;;;5014945;28;19928;-89
2022/12/31 15:30:42;;;;;;;;;;;;;;;;;;5031277;28;19921;-89
2022/12/31 15:33:08;;;;;;;;;;;;;;;;;;5047520;28;19925;-90
2022/12/31 15:35:36;;;;;;;;;;;;;;;;;;5015171;28;19936;-91
2022/12/31 15:38:05;;;;;;;;;;;;;;;;;;5032361;28;20399;-89
2022/12/31 15:40:31;;;;;;;;;;;;;;;;;;5014566;28;20015;-89
2022/12/31 15:42:57;;;;;;;;;;;;;;;;;;5031006;28;20016;-90
2022/12/31 15:45:23;;;;;;;;;;;;;;;;;;5030902;28;19921;-90
2022/12/31 15:47:49;;;;;;;;;;;;;;;;;;5014431;28;19921;-89
2022/12/31 15:50:15;;;;;;;;;;;;;;;;;;5014621;28;19925;-89
2022/12/31 15:52:40;;;;;;;;;;;;;;;;;;5014373;28;19925;-90
2022/12/31 15:55:06;;;;;;;;;;;;;;;;;;5014330;28;19928;-90
2022/12/31 15:57:32;;;;;;;;;;;;;;;;;;5030581;28;20339;-90
2022/12/31 15:59:58;;;;;;;;;;;;;;;;;;5014436;28;20349;-90
2022/12/31 16:02:24;;;;;;;;;;;;;;;;;;5014155;28;20288;-91
2022/12/31 16:04:50;;;;;;;;;;;;;;;;;;5030883;28;19932;-90
2022/12/31 16:07:16;;;;;;;;;;;;;;;;;;5010325;28;19922;-90
2022/12/31 16:09:43;;;;;;;;;;;;;;;;;;5031169;28;19921;-91
2022/12/31 16:12:09;;;;;;;;;;;;;;;;;;5030753;28;19925;-90
2022/12/31 16:14:35;;;;;;;;;;;;;;;;;;5014210;28;20233;-90
2022/12/31 16:17:01;;;;;;;;;;;;;;;;;;5013567;28;19928;-90
2022/12/31 16:19:27;;;;;;;;;;;;;;;;;;5013751;28;19921;-90
2022/12/31 16:21:53;;;;;;;;;;;;;;;;;;5011320;28;19922;-90
2022/12/31 16:24:19;;;;;;;;;;;;;;;;;;4994624;28;19928;-92
2022/12/31 16:26:45;;;;;;;;;;;;;;;;;;4995174;28;19925;-90
2022/12/31 16:29:11;;;;;;;;;;;;;;;;;;4994734;28;20361;-90
2022/12/31 16:31:39;;;;;;;;;;;;;;;;;;4994446;28;19929;-90
2022/12/31 16:34:05;;;;;;;;;;;;;;;;;;5012567;28;19948;-91
2022/12/31 16:36:31;;;;;;;;;;;;;;;;;;4994786;28;19922;-90
2022/12/31 16:38:58;;;;;;;;;;;;;;;;;;5011528;28;20012;-89
2022/12/31 16:41:24;;;;;;;;;;;;;;;;;;4998390;28;20387;-90
2022/12/31 16:43:50;;;;;;;;;;;;;;;;;;4994322;28;19922;-91
2022/12/31 16:46:16;;;;;;;;;;;;;;;;;;4998679;28;20008;-90
2022/12/31 16:48:41;;;;;;;;;;;;;;;;;;4998367;28;19921;-89
2022/12/31 16:51:07;;;;;;;;;;;;;;;;;;4998564;28;19928;-89
2022/12/31 16:53:35;;;;;;;;;;;;;;;;;;4998275;28;19960;-90
2022/12/31 16:56:00;;;;;;;;;;;;;;;;;;5014286;28;19925;-89
2022/12/31 16:58:27;;;;;;;;;;;;;;;;;;5014420;28;19987;-89
2022/12/31 17:00:53;;;;;;;;;;;;;;;;;;5014648;28;20284;-89
2022/12/31 17:03:18;;;;;;;;;;;;;;;;;;5015321;28;20004;-88
2022/12/31 17:05:44;;;;;;;;;;;;;;;;;;5031131;28;19971;-86
2022/12/31 17:08:10;;;;;;;;;;;;;;;;;;5030934;28;19929;-88
2022/12/31 17:10:36;;;;;;;;;;;;;;;;;;5030847;28;19922;-87
2022/12/31 17:13:02;;;;;;;;;;;;;;;;;;5030340;28;19926;-88
2022/12/31 17:15:28;;;;;;;;;;;;;;;;;;5013783;28;19922;-87
2022/12/31 17:17:54;;;;;;;;;;;;;;;;;;5030275;28;19967;-88
2022/12/31 17:20:20;;;;;;;;;;;;;;;;;;5030429;28;20004;-89
2022/12/31 17:22:46;;;;;;;;;;;;;;;;;;5030476;28;19945;-89
2022/12/31 17:25:12;;;;;;;;;;;;;;;;;;5030140;28;19921;-92
2022/12/31 17:27:39;;;;;;;;;;;;;;;;;;5014397;28;19921;-92
2022/12/31 17:30:05;;;;;;;;;;;;;;;;;;5030188;28;19926;-88
2022/12/31 17:32:31;;;;;;;;;;;;;;;;;;5030022;28;19972;-87
2022/12/31 17:34:57;;;;;;;;;;;;;;;;;;5013910;28;19976;-87
2022/12/31 17:37:23;;;;;;;;;;;;;;;;;;5013809;28;19921;-87
2022/12/31 17:39:50;;;;;;;;;;;;;;;;;;5029977;28;20288;-90
2022/12/31 17:42:16;;;;;;;;;;;;;;;;;;5013461;28;19983;-90